4XCWE LLHZ-LLHZ

Flight info

Callsign 4XCWE
Flight time 0h 5m
Altitude 800
Route CVFR
Aircraft C152/L-VD/A

Departure

Time 2026-04-27 16:12
Airport Herzliya Airport (LLHZ)

Arrival

Time 2026-04-27 16:17
Airport Herzliya Airport (LLHZ)
Time Latitude Longitude Altitude Speed Heading
2026-04-27 16:06 32.17881 34.83779 123 ft 0 kts 110°
2026-04-27 16:09 32.17883 34.83792 122 ft 10 kts 57°
2026-04-27 16:09 32.17890 34.83815 124 ft 0 kts 101°
2026-04-27 16:10 32.17882 34.83840 123 ft 6 kts 115°
2026-04-27 16:10 32.17919 34.83833 127 ft 0 kts 290°
2026-04-27 16:11 32.18060 34.83352 170 ft 64 kts 296°
2026-04-27 16:12 32.18642 34.82758 428 ft 71 kts 25°
2026-04-27 16:12 32.19028 34.82984 686 ft 55 kts 20°
2026-04-27 16:12 32.19090 34.83929 819 ft 92 kts 110°
2026-04-27 16:13 32.18833 34.84665 791 ft 100 kts 106°
2026-04-27 16:13 32.17932 34.85348 777 ft 92 kts 207°
2026-04-27 16:13 32.17614 34.84886 520 ft 59 kts 287°
2026-04-27 16:14 32.17869 34.83974 186 ft 65 kts 299°
2026-04-27 16:14 32.18136 34.83105 235 ft 53 kts 300°
2026-04-27 16:15 32.18726 34.82954 538 ft 59 kts 20°
2026-04-27 16:15 32.19318 34.83779 436 ft 107 kts 115°
2026-04-27 16:16 32.18654 34.85313 508 ft 94 kts 120°
2026-04-27 16:16 32.17739 34.85089 389 ft 74 kts 228°
2026-04-27 16:17 32.17829 34.84109 233 ft 59 kts 295°
2026-04-27 16:17 32.18035 34.83444 108 ft 27 kts 289°
2026-04-27 16:18 32.18022 34.83334 106 ft 3 kts 182°